sensor_id;sensor_type;location;lat;lon;timestamp;pressure;altitude;pressure_sealevel;temperature
19666;BMP180;9980;51.020;7.772;2023-07-02T00:00:09;96765.00;;;20.50
19666;BMP180;9980;51.020;7.772;2023-07-02T00:02:37;96772.00;;;20.50
19666;BMP180;9980;51.020;7.772;2023-07-02T00:05:06;96761.00;;;20.50
19666;BMP180;9980;51.020;7.772;2023-07-02T00:07:34;96765.00;;;20.50
19666;BMP180;9980;51.020;7.772;2023-07-02T00:10:04;96769.00;;;20.50
19666;BMP180;9980;51.020;7.772;2023-07-02T00:12:31;96758.00;;;20.50
19666;BMP180;9980;51.020;7.772;2023-07-02T00:14:58;96762.00;;;20.50
19666;BMP180;9980;51.020;7.772;2023-07-02T00:17:24;96769.00;;;20.40
19666;BMP180;9980;51.020;7.772;2023-07-02T00:19:52;96773.00;;;20.40
19666;BMP180;9980;51.020;7.772;2023-07-02T00:22:20;96769.00;;;20.40
19666;BMP180;9980;51.020;7.772;2023-07-02T00:24:47;96759.00;;;20.40
19666;BMP180;9980;51.020;7.772;2023-07-02T00:27:14;96760.00;;;20.40
19666;BMP180;9980;51.020;7.772;2023-07-02T00:29:41;96777.00;;;20.30
19666;BMP180;9980;51.020;7.772;2023-07-02T00:32:08;96770.00;;;20.40
19666;BMP180;9980;51.020;7.772;2023-07-02T00:34:35;96766.00;;;20.30
19666;BMP180;9980;51.020;7.772;2023-07-02T00:37:02;96771.00;;;20.30
19666;BMP180;9980;51.020;7.772;2023-07-02T00:39:29;96772.00;;;20.30
19666;BMP180;9980;51.020;7.772;2023-07-02T00:42:03;96769.00;;;20.20
19666;BMP180;9980;51.020;7.772;2023-07-02T00:44:31;96765.00;;;20.20
19666;BMP180;9980;51.020;7.772;2023-07-02T00:46:58;96779.00;;;20.10
19666;BMP180;9980;51.020;7.772;2023-07-02T00:49:29;96761.00;;;20.10
19666;BMP180;9980;51.020;7.772;2023-07-02T00:51:56;96763.00;;;20.10
19666;BMP180;9980;51.020;7.772;2023-07-02T00:54:23;96763.00;;;20.10
19666;BMP180;9980;51.020;7.772;2023-07-02T00:56:50;96758.00;;;20.10
19666;BMP180;9980;51.020;7.772;2023-07-02T00:59:17;96765.00;;;20.10
19666;BMP180;9980;51.020;7.772;2023-07-02T01:01:44;96767.00;;;20.10
19666;BMP180;9980;51.020;7.772;2023-07-02T01:04:18;96754.00;;;20.10
19666;BMP180;9980;51.020;7.772;2023-07-02T01:06:46;96756.00;;;20.10
19666;BMP180;9980;51.020;7.772;2023-07-02T01:09:12;96753.00;;;20.00
19666;BMP180;9980;51.020;7.772;2023-07-02T01:12:09;96759.00;;;20.00
19666;BMP180;9980;51.020;7.772;2023-07-02T01:14:52;96787.00;;;20.00
19666;BMP180;9980;51.020;7.772;2023-07-02T01:17:22;96777.00;;;20.00
19666;BMP180;9980;51.020;7.772;2023-07-02T01:19:55;96771.00;;;20.00
19666;BMP180;9980;51.020;7.772;2023-07-02T01:22:28;96782.00;;;20.00
19666;BMP180;9980;51.020;7.772;2023-07-02T01:24:55;96776.00;;;20.00
19666;BMP180;9980;51.020;7.772;2023-07-02T01:27:23;96762.00;;;20.00
19666;BMP180;9980;51.020;7.772;2023-07-02T01:29:53;96765.00;;;20.00
19666;BMP180;9980;51.020;7.772;2023-07-02T01:32:21;96768.00;;;20.00
19666;BMP180;9980;51.020;7.772;2023-07-02T01:34:50;96767.00;;;20.00
19666;BMP180;9980;51.020;7.772;2023-07-02T01:37:19;96763.00;;;20.00
19666;BMP180;9980;51.020;7.772;2023-07-02T01:39:47;96771.00;;;20.00
19666;BMP180;9980;51.020;7.772;2023-07-02T01:42:16;96766.00;;;20.00
19666;BMP180;9980;51.020;7.772;2023-07-02T01:44:48;96765.00;;;19.90
19666;BMP180;9980;51.020;7.772;2023-07-02T01:47:17;96768.00;;;19.90
19666;BMP180;9980;51.020;7.772;2023-07-02T01:49:46;96758.00;;;19.90
19666;BMP180;9980;51.020;7.772;2023-07-02T01:52:14;96781.00;;;19.90
19666;BMP180;9980;51.020;7.772;2023-07-02T01:54:41;96783.00;;;19.90
19666;BMP180;9980;51.020;7.772;2023-07-02T01:57:09;96781.00;;;19.90
19666;BMP180;9980;51.020;7.772;2023-07-02T01:59:35;96767.00;;;19.90
19666;BMP180;9980;51.020;7.772;2023-07-02T02:02:03;96782.00;;;19.90
19666;BMP180;9980;51.020;7.772;2023-07-02T02:04:30;96778.00;;;19.90
19666;BMP180;9980;51.020;7.772;2023-07-02T02:06:57;96771.00;;;19.90
19666;BMP180;9980;51.020;7.772;2023-07-02T02:09:24;96776.00;;;19.90
19666;BMP180;9980;51.020;7.772;2023-07-02T02:11:51;96770.00;;;19.80
19666;BMP180;9980;51.020;7.772;2023-07-02T02:14:19;96784.00;;;19.80
19666;BMP180;9980;51.020;7.772;2023-07-02T02:16:46;96790.00;;;19.80
19666;BMP180;9980;51.020;7.772;2023-07-02T02:19:13;96782.00;;;19.80
19666;BMP180;9980;51.020;7.772;2023-07-02T02:21:42;96775.00;;;19.80
19666;BMP180;9980;51.020;7.772;2023-07-02T02:24:10;96786.00;;;19.80
19666;BMP180;9980;51.020;7.772;2023-07-02T02:26:37;96794.00;;;19.80
19666;BMP180;9980;51.020;7.772;2023-07-02T02:29:04;96787.00;;;19.80
19666;BMP180;9980;51.020;7.772;2023-07-02T02:31:31;96793.00;;;19.80
19666;BMP180;9980;51.020;7.772;2023-07-02T02:33:59;96779.00;;;19.80
19666;BMP180;9980;51.020;7.772;2023-07-02T02:36:26;96785.00;;;19.70
19666;BMP180;9980;51.020;7.772;2023-07-02T02:38:54;96789.00;;;19.70
19666;BMP180;9980;51.020;7.772;2023-07-02T02:41:21;96785.00;;;19.70
19666;BMP180;9980;51.020;7.772;2023-07-02T02:43:51;96804.00;;;19.70
19666;BMP180;9980;51.020;7.772;2023-07-02T02:46:21;96787.00;;;19.70
19666;BMP180;9980;51.020;7.772;2023-07-02T02:48:49;96789.00;;;19.70
19666;BMP180;9980;51.020;7.772;2023-07-02T02:51:16;96776.00;;;19.70
19666;BMP180;9980;51.020;7.772;2023-07-02T02:53:43;96785.00;;;19.70
19666;BMP180;9980;51.020;7.772;2023-07-02T02:56:10;96774.00;;;19.60
19666;BMP180;9980;51.020;7.772;2023-07-02T02:58:37;96773.00;;;19.60
19666;BMP180;9980;51.020;7.772;2023-07-02T03:01:04;96770.00;;;19.60
19666;BMP180;9980;51.020;7.772;2023-07-02T03:03:42;96769.00;;;19.60
19666;BMP180;9980;51.020;7.772;2023-07-02T03:06:16;96782.00;;;19.60
19666;BMP180;9980;51.020;7.772;2023-07-02T03:08:43;96770.00;;;19.50
19666;BMP180;9980;51.020;7.772;2023-07-02T03:11:10;96797.00;;;19.50
19666;BMP180;9980;51.020;7.772;2023-07-02T03:13:37;96795.00;;;19.50
19666;BMP180;9980;51.020;7.772;2023-07-02T03:16:05;96785.00;;;19.50
19666;BMP180;9980;51.020;7.772;2023-07-02T03:18:32;96792.00;;;19.50
19666;BMP180;9980;51.020;7.772;2023-07-02T03:20:59;96801.00;;;19.50
19666;BMP180;9980;51.020;7.772;2023-07-02T03:23:27;96795.00;;;19.50
19666;BMP180;9980;51.020;7.772;2023-07-02T03:25:53;96800.00;;;19.50
19666;BMP180;9980;51.020;7.772;2023-07-02T03:28:20;96806.00;;;19.50
19666;BMP180;9980;51.020;7.772;2023-07-02T03:30:47;96819.00;;;19.40
19666;BMP180;9980;51.020;7.772;2023-07-02T03:33:15;96802.00;;;19.40
19666;BMP180;9980;51.020;7.772;2023-07-02T03:35:42;96803.00;;;19.40
19666;BMP180;9980;51.020;7.772;2023-07-02T03:38:09;96803.00;;;19.40
19666;BMP180;9980;51.020;7.772;2023-07-02T03:40:36;96815.00;;;19.40
19666;BMP180;9980;51.020;7.772;2023-07-02T03:43:03;96798.00;;;19.40
19666;BMP180;9980;51.020;7.772;2023-07-02T03:45:29;96804.00;;;19.40
19666;BMP180;9980;51.020;7.772;2023-07-02T03:47:56;96811.00;;;19.40
19666;BMP180;9980;51.020;7.772;2023-07-02T03:50:23;96813.00;;;19.30
19666;BMP180;9980;51.020;7.772;2023-07-02T03:52:50;96811.00;;;19.30
19666;BMP180;9980;51.020;7.772;2023-07-02T03:55:17;96809.00;;;19.30
19666;BMP180;9980;51.020;7.772;2023-07-02T03:57:44;96825.00;;;19.30
19666;BMP180;9980;51.020;7.772;2023-07-02T04:00:11;96820.00;;;19.30
19666;BMP180;9980;51.020;7.772;2023-07-02T04:02:41;96832.00;;;19.30
19666;BMP180;9980;51.020;7.772;2023-07-02T04:05:08;96829.00;;;19.30
19666;BMP180;9980;51.020;7.772;2023-07-02T04:07:35;96827.00;;;19.30
19666;BMP180;9980;51.020;7.772;2023-07-02T04:10:02;96830.00;;;19.30
19666;BMP180;9980;51.020;7.772;2023-07-02T04:12:30;96833.00;;;19.30
19666;BMP180;9980;51.020;7.772;2023-07-02T04:14:57;96841.00;;;19.30
19666;BMP180;9980;51.020;7.772;2023-07-02T04:17:24;96820.00;;;19.30
19666;BMP180;9980;51.020;7.772;2023-07-02T04:19:54;96850.00;;;19.20
19666;BMP180;9980;51.020;7.772;2023-07-02T04:22:21;96842.00;;;19.30
19666;BMP180;9980;51.020;7.772;2023-07-02T04:24:48;96842.00;;;19.20
19666;BMP180;9980;51.020;7.772;2023-07-02T04:27:17;96844.00;;;19.30
19666;BMP180;9980;51.020;7.772;2023-07-02T04:30:05;96849.00;;;19.30
19666;BMP180;9980;51.020;7.772;2023-07-02T04:32:32;96849.00;;;19.30
19666;BMP180;9980;51.020;7.772;2023-07-02T04:35:00;96843.00;;;19.30
19666;BMP180;9980;51.020;7.772;2023-07-02T04:37:28;96858.00;;;19.30
19666;BMP180;9980;51.020;7.772;2023-07-02T04:39:55;96849.00;;;19.30
19666;BMP180;9980;51.020;7.772;2023-07-02T04:42:23;96854.00;;;19.30
19666;BMP180;9980;51.020;7.772;2023-07-02T04:44:54;96860.00;;;19.30
19666;BMP180;9980;51.020;7.772;2023-07-02T04:47:22;96859.00;;;19.30
19666;BMP180;9980;51.020;7.772;2023-07-02T04:49:49;96859.00;;;19.30
19666;BMP180;9980;51.020;7.772;2023-07-02T04:52:15;96857.00;;;19.30
19666;BMP180;9980;51.020;7.772;2023-07-02T04:54:42;96855.00;;;19.30
19666;BMP180;9980;51.020;7.772;2023-07-02T04:57:09;96857.00;;;19.30
19666;BMP180;9980;51.020;7.772;2023-07-02T04:59:36;96861.00;;;19.30
19666;BMP180;9980;51.020;7.772;2023-07-02T05:02:03;96858.00;;;19.30
19666;BMP180;9980;51.020;7.772;2023-07-02T05:04:30;96869.00;;;19.30
19666;BMP180;9980;51.020;7.772;2023-07-02T05:06:59;96871.00;;;19.30
19666;BMP180;9980;51.020;7.772;2023-07-02T05:09:26;96868.00;;;19.30
19666;BMP180;9980;51.020;7.772;2023-07-02T05:11:52;96874.00;;;19.30
19666;BMP180;9980;51.020;7.772;2023-07-02T05:14:19;96870.00;;;19.30
19666;BMP180;9980;51.020;7.772;2023-07-02T05:16:46;96869.00;;;19.30
19666;BMP180;9980;51.020;7.772;2023-07-02T05:19:13;96869.00;;;19.30
19666;BMP180;9980;51.020;7.772;2023-07-02T05:21:40;96888.00;;;19.30
19666;BMP180;9980;51.020;7.772;2023-07-02T05:24:08;96876.00;;;19.30
19666;BMP180;9980;51.020;7.772;2023-07-02T05:26:35;96887.00;;;19.30
19666;BMP180;9980;51.020;7.772;2023-07-02T05:29:02;96883.00;;;19.30
19666;BMP180;9980;51.020;7.772;2023-07-02T05:31:29;96898.00;;;19.30
19666;BMP180;9980;51.020;7.772;2023-07-02T05:33:56;96884.00;;;19.30
19666;BMP180;9980;51.020;7.772;2023-07-02T05:36:23;96881.00;;;19.30
19666;BMP180;9980;51.020;7.772;2023-07-02T05:38:50;96893.00;;;19.30
19666;BMP180;9980;51.020;7.772;2023-07-02T05:41:20;96882.00;;;19.30
19666;BMP180;9980;51.020;7.772;2023-07-02T05:43:48;96889.00;;;19.30
19666;BMP180;9980;51.020;7.772;2023-07-02T05:46:15;96894.00;;;19.30
19666;BMP180;9980;51.020;7.772;2023-07-02T05:48:42;96891.00;;;19.30
19666;BMP180;9980;51.020;7.772;2023-07-02T05:51:09;96906.00;;;19.30
19666;BMP180;9980;51.020;7.772;2023-07-02T05:53:37;96899.00;;;19.30
19666;BMP180;9980;51.020;7.772;2023-07-02T05:56:04;96902.00;;;19.30
19666;BMP180;9980;51.020;7.772;2023-07-02T05:58:31;96902.00;;;19.20
19666;BMP180;9980;51.020;7.772;2023-07-02T06:01:13;96899.00;;;19.20
19666;BMP180;9980;51.020;7.772;2023-07-02T06:03:41;96889.00;;;19.20
19666;BMP180;9980;51.020;7.772;2023-07-02T06:06:10;96908.00;;;19.20
19666;BMP180;9980;51.020;7.772;2023-07-02T06:08:38;96920.00;;;19.30
19666;BMP180;9980;51.020;7.772;2023-07-02T06:11:05;96911.00;;;19.30
19666;BMP180;9980;51.020;7.772;2023-07-02T06:13:32;96919.00;;;19.30
19666;BMP180;9980;51.020;7.772;2023-07-02T06:15:59;96919.00;;;19.40
19666;BMP180;9980;51.020;7.772;2023-07-02T06:18:26;96912.00;;;19.40
19666;BMP180;9980;51.020;7.772;2023-07-02T06:20:53;96907.00;;;19.40
19666;BMP180;9980;51.020;7.772;2023-07-02T06:23:20;96917.00;;;19.40
19666;BMP180;9980;51.020;7.772;2023-07-02T06:25:47;96917.00;;;19.50
19666;BMP180;9980;51.020;7.772;2023-07-02T06:28:15;96920.00;;;19.50
19666;BMP180;9980;51.020;7.772;2023-07-02T06:30:42;96919.00;;;19.50
19666;BMP180;9980;51.020;7.772;2023-07-02T06:33:09;96918.00;;;19.50
19666;BMP180;9980;51.020;7.772;2023-07-02T06:35:36;96930.00;;;19.60
19666;BMP180;9980;51.020;7.772;2023-07-02T06:38:03;96928.00;;;19.70
19666;BMP180;9980;51.020;7.772;2023-07-02T06:40:30;96928.00;;;19.70
19666;BMP180;9980;51.020;7.772;2023-07-02T06:42:57;96921.00;;;19.80
19666;BMP180;9980;51.020;7.772;2023-07-02T06:45:24;96935.00;;;19.80
19666;BMP180;9980;51.020;7.772;2023-07-02T06:47:51;96936.00;;;19.90
19666;BMP180;9980;51.020;7.772;2023-07-02T06:50:18;96941.00;;;19.90
19666;BMP180;9980;51.020;7.772;2023-07-02T06:52:45;96950.00;;;20.00
19666;BMP180;9980;51.020;7.772;2023-07-02T06:55:12;96934.00;;;20.00
19666;BMP180;9980;51.020;7.772;2023-07-02T06:57:43;96950.00;;;20.10
19666;BMP180;9980;51.020;7.772;2023-07-02T07:00:13;96948.00;;;20.20
19666;BMP180;9980;51.020;7.772;2023-07-02T07:02:40;96953.00;;;20.20
19666;BMP180;9980;51.020;7.772;2023-07-02T07:05:08;96954.00;;;20.30
19666;BMP180;9980;51.020;7.772;2023-07-02T07:07:36;96944.00;;;20.40
19666;BMP180;9980;51.020;7.772;2023-07-02T07:10:04;96957.00;;;20.50
19666;BMP180;9980;51.020;7.772;2023-07-02T07:12:31;96961.00;;;20.50
19666;BMP180;9980;51.020;7.772;2023-07-02T07:14:58;96960.00;;;20.60
19666;BMP180;9980;51.020;7.772;2023-07-02T07:17:25;96958.00;;;20.80
19666;BMP180;9980;51.020;7.772;2023-07-02T07:19:52;96963.00;;;20.80
19666;BMP180;9980;51.020;7.772;2023-07-02T07:22:19;96962.00;;;20.90
19666;BMP180;9980;51.020;7.772;2023-07-02T07:24:46;96959.00;;;20.90
19666;BMP180;9980;51.020;7.772;2023-07-02T07:27:13;96964.00;;;21.00
19666;BMP180;9980;51.020;7.772;2023-07-02T07:29:40;96960.00;;;21.10
19666;BMP180;9980;51.020;7.772;2023-07-02T07:32:07;96962.00;;;21.20
19666;BMP180;9980;51.020;7.772;2023-07-02T07:34:34;96970.00;;;21.20
19666;BMP180;9980;51.020;7.772;2023-07-02T07:37:01;96964.00;;;21.30
19666;BMP180;9980;51.020;7.772;2023-07-02T07:39:28;96978.00;;;21.30
19666;BMP180;9980;51.020;7.772;2023-07-02T07:41:55;96959.00;;;21.40
19666;BMP180;9980;51.020;7.772;2023-07-02T07:44:22;96969.00;;;21.40
19666;BMP180;9980;51.020;7.772;2023-07-02T07:46:49;96968.00;;;21.50
19666;BMP180;9980;51.020;7.772;2023-07-02T07:49:16;96970.00;;;21.50
19666;BMP180;9980;51.020;7.772;2023-07-02T07:51:43;96974.00;;;21.60
19666;BMP180;9980;51.020;7.772;2023-07-02T07:54:10;96964.00;;;21.60
19666;BMP180;9980;51.020;7.772;2023-07-02T07:56:38;96963.00;;;21.70
19666;BMP180;9980;51.020;7.772;2023-07-02T07:59:05;96971.00;;;21.70
19666;BMP180;9980;51.020;7.772;2023-07-02T08:01:31;96965.00;;;21.80
19666;BMP180;9980;51.020;7.772;2023-07-02T08:03:58;96974.00;;;21.90
19666;BMP180;9980;51.020;7.772;2023-07-02T08:06:25;96985.00;;;21.90
19666;BMP180;9980;51.020;7.772;2023-07-02T08:08:52;96983.00;;;22.00
19666;BMP180;9980;51.020;7.772;2023-07-02T08:11:22;96969.00;;;22.10
19666;BMP180;9980;51.020;7.772;2023-07-02T08:13:49;96983.00;;;22.10
19666;BMP180;9980;51.020;7.772;2023-07-02T08:16:19;96983.00;;;22.20
19666;BMP180;9980;51.020;7.772;2023-07-02T08:18:46;96972.00;;;22.30
19666;BMP180;9980;51.020;7.772;2023-07-02T08:21:13;96979.00;;;22.40
19666;BMP180;9980;51.020;7.772;2023-07-02T08:23:42;96988.00;;;22.40
19666;BMP180;9980;51.020;7.772;2023-07-02T08:26:10;97003.00;;;22.50
19666;BMP180;9980;51.020;7.772;2023-07-02T08:28:38;97001.00;;;22.60
19666;BMP180;9980;51.020;7.772;2023-07-02T08:31:05;97001.00;;;22.70
19666;BMP180;9980;51.020;7.772;2023-07-02T08:33:32;97008.00;;;22.70
19666;BMP180;9980;51.020;7.772;2023-07-02T08:35:59;97004.00;;;22.80
19666;BMP180;9980;51.020;7.772;2023-07-02T08:38:27;97009.00;;;22.80
19666;BMP180;9980;51.020;7.772;2023-07-02T08:40:54;97009.00;;;22.80
19666;BMP180;9980;51.020;7.772;2023-07-02T08:43:23;97014.00;;;22.90
19666;BMP180;9980;51.020;7.772;2023-07-02T08:45:53;97016.00;;;22.90
19666;BMP180;9980;51.020;7.772;2023-07-02T08:48:20;97018.00;;;22.90
19666;BMP180;9980;51.020;7.772;2023-07-02T08:50:50;97011.00;;;22.90
19666;BMP180;9980;51.020;7.772;2023-07-02T08:53:18;97022.00;;;23.00
19666;BMP180;9980;51.020;7.772;2023-07-02T08:55:45;97025.00;;;23.10
19666;BMP180;9980;51.020;7.772;2023-07-02T08:58:14;97014.00;;;23.10
19666;BMP180;9980;51.020;7.772;2023-07-02T09:00:41;97021.00;;;23.20
19666;BMP180;9980;51.020;7.772;2023-07-02T09:03:28;97022.00;;;23.20
19666;BMP180;9980;51.020;7.772;2023-07-02T09:05:55;97020.00;;;23.30
19666;BMP180;9980;51.020;7.772;2023-07-02T09:08:25;97026.00;;;23.30
19666;BMP180;9980;51.020;7.772;2023-07-02T09:10:53;97022.00;;;23.40
19666;BMP180;9980;51.020;7.772;2023-07-02T09:13:20;97018.00;;;23.40
19666;BMP180;9980;51.020;7.772;2023-07-02T09:15:47;97017.00;;;23.50
19666;BMP180;9980;51.020;7.772;2023-07-02T09:18:23;97031.00;;;23.50
19666;BMP180;9980;51.020;7.772;2023-07-02T09:20:54;97042.00;;;23.60
19666;BMP180;9980;51.020;7.772;2023-07-02T09:23:21;97034.00;;;23.60
19666;BMP180;9980;51.020;7.772;2023-07-02T09:25:49;97032.00;;;23.60
19666;BMP180;9980;51.020;7.772;2023-07-02T09:28:22;97034.00;;;23.60
19666;BMP180;9980;51.020;7.772;2023-07-02T09:33:32;97042.00;;;23.70
19666;BMP180;9980;51.020;7.772;2023-07-02T09:36:00;97033.00;;;23.80
19666;BMP180;9980;51.020;7.772;2023-07-02T09:38:27;97053.00;;;23.80
19666;BMP180;9980;51.020;7.772;2023-07-02T09:40:54;97044.00;;;23.90
19666;BMP180;9980;51.020;7.772;2023-07-02T09:43:23;97037.00;;;24.00
19666;BMP180;9980;51.020;7.772;2023-07-02T09:45:54;97047.00;;;24.00
19666;BMP180;9980;51.020;7.772;2023-07-02T09:48:24;97046.00;;;24.10
19666;BMP180;9980;51.020;7.772;2023-07-02T09:50:54;97036.00;;;24.10
19666;BMP180;9980;51.020;7.772;2023-07-02T09:53:23;97035.00;;;24.20
19666;BMP180;9980;51.020;7.772;2023-07-02T09:55:50;97035.00;;;24.20
19666;BMP180;9980;51.020;7.772;2023-07-02T09:58:17;97035.00;;;24.20
19666;BMP180;9980;51.020;7.772;2023-07-02T10:00:44;97043.00;;;24.30
19666;BMP180;9980;51.020;7.772;2023-07-02T10:03:12;97043.00;;;24.30
19666;BMP180;9980;51.020;7.772;2023-07-02T10:05:39;97035.00;;;24.30
19666;BMP180;9980;51.020;7.772;2023-07-02T10:08:16;97039.00;;;24.40
19666;BMP180;9980;51.020;7.772;2023-07-02T10:10:48;97036.00;;;24.40
19666;BMP180;9980;51.020;7.772;2023-07-02T10:13:27;97047.00;;;24.50
19666;BMP180;9980;51.020;7.772;2023-07-02T10:16:02;97053.00;;;24.50
19666;BMP180;9980;51.020;7.772;2023-07-02T10:18:29;97053.00;;;24.60
19666;BMP180;9980;51.020;7.772;2023-07-02T10:20:56;97044.00;;;24.60
19666;BMP180;9980;51.020;7.772;2023-07-02T10:23:35;97041.00;;;24.60
19666;BMP180;9980;51.020;7.772;2023-07-02T10:26:16;97045.00;;;24.60
19666;BMP180;9980;51.020;7.772;2023-07-02T10:28:57;97040.00;;;24.60
19666;BMP180;9980;51.020;7.772;2023-07-02T10:31:24;97042.00;;;24.60
19666;BMP180;9980;51.020;7.772;2023-07-02T10:33:51;97042.00;;;24.70
19666;BMP180;9980;51.020;7.772;2023-07-02T10:36:25;97049.00;;;24.80
19666;BMP180;9980;51.020;7.772;2023-07-02T10:38:52;97037.00;;;24.80
19666;BMP180;9980;51.020;7.772;2023-07-02T10:41:28;97042.00;;;24.90
19666;BMP180;9980;51.020;7.772;2023-07-02T10:44:11;97034.00;;;24.90
19666;BMP180;9980;51.020;7.772;2023-07-02T10:46:46;97044.00;;;25.00
19666;BMP180;9980;51.020;7.772;2023-07-02T10:49:17;97035.00;;;25.10
19666;BMP180;9980;51.020;7.772;2023-07-02T10:51:44;97030.00;;;25.20
19666;BMP180;9980;51.020;7.772;2023-07-02T10:54:11;97036.00;;;25.30
19666;BMP180;9980;51.020;7.772;2023-07-02T10:56:41;97049.00;;;25.40
19666;BMP180;9980;51.020;7.772;2023-07-02T10:59:08;97036.00;;;25.40
19666;BMP180;9980;51.020;7.772;2023-07-02T11:01:34;97043.00;;;25.50
19666;BMP180;9980;51.020;7.772;2023-07-02T11:04:03;97046.00;;;25.50
19666;BMP180;9980;51.020;7.772;2023-07-02T11:06:32;97038.00;;;25.50
19666;BMP180;9980;51.020;7.772;2023-07-02T11:09:00;97042.00;;;25.60
19666;BMP180;9980;51.020;7.772;2023-07-02T11:11:27;97037.00;;;25.50
19666;BMP180;9980;51.020;7.772;2023-07-02T11:13:54;97065.00;;;25.50
19666;BMP180;9980;51.020;7.772;2023-07-02T11:18:54;97041.00;;;25.30
19666;BMP180;9980;51.020;7.772;2023-07-02T11:21:21;97046.00;;;25.30
19666;BMP180;9980;51.020;7.772;2023-07-02T11:23:49;97060.00;;;25.30
19666;BMP180;9980;51.020;7.772;2023-07-02T11:26:15;97044.00;;;25.30
19666;BMP180;9980;51.020;7.772;2023-07-02T11:28:50;97042.00;;;25.30
19666;BMP180;9980;51.020;7.772;2023-07-02T11:31:25;97037.00;;;25.30
19666;BMP180;9980;51.020;7.772;2023-07-02T11:33:55;97049.00;;;25.40
19666;BMP180;9980;51.020;7.772;2023-07-02T11:36:23;97050.00;;;25.50
19666;BMP180;9980;51.020;7.772;2023-07-02T11:38:55;97042.00;;;25.50
19666;BMP180;9980;51.020;7.772;2023-07-02T11:41:22;97059.00;;;25.60
19666;BMP180;9980;51.020;7.772;2023-07-02T11:43:49;97055.00;;;25.60
19666;BMP180;9980;51.020;7.772;2023-07-02T11:46:16;97062.00;;;25.70
19666;BMP180;9980;51.020;7.772;2023-07-02T11:48:43;97052.00;;;25.70
19666;BMP180;9980;51.020;7.772;2023-07-02T11:51:10;97050.00;;;25.80
19666;BMP180;9980;51.020;7.772;2023-07-02T11:53:37;97041.00;;;25.90
19666;BMP180;9980;51.020;7.772;2023-07-02T11:56:04;97034.00;;;26.00
19666;BMP180;9980;51.020;7.772;2023-07-02T11:58:31;97044.00;;;26.20
19666;BMP180;9980;51.020;7.772;2023-07-02T12:00:58;97045.00;;;26.30
19666;BMP180;9980;51.020;7.772;2023-07-02T12:03:25;97052.00;;;26.30
19666;BMP180;9980;51.020;7.772;2023-07-02T12:05:52;97059.00;;;26.40
19666;BMP180;9980;51.020;7.772;2023-07-02T12:08:19;97051.00;;;26.40
19666;BMP180;9980;51.020;7.772;2023-07-02T12:10:46;97046.00;;;26.30
19666;BMP180;9980;51.020;7.772;2023-07-02T12:13:13;97051.00;;;26.40
19666;BMP180;9980;51.020;7.772;2023-07-02T12:15:40;97063.00;;;26.40
19666;BMP180;9980;51.020;7.772;2023-07-02T12:18:08;97057.00;;;26.40
19666;BMP180;9980;51.020;7.772;2023-07-02T12:20:35;97078.00;;;26.40
19666;BMP180;9980;51.020;7.772;2023-07-02T12:23:03;97068.00;;;26.40
19666;BMP180;9980;51.020;7.772;2023-07-02T12:25:30;97065.00;;;26.30
19666;BMP180;9980;51.020;7.772;2023-07-02T12:27:59;97070.00;;;26.30
19666;BMP180;9980;51.020;7.772;2023-07-02T12:30:26;97076.00;;;26.30
19666;BMP180;9980;51.020;7.772;2023-07-02T12:32:53;97061.00;;;26.20
19666;BMP180;9980;51.020;7.772;2023-07-02T12:35:21;97070.00;;;26.20
19666;BMP180;9980;51.020;7.772;2023-07-02T12:37:52;97064.00;;;26.30
19666;BMP180;9980;51.020;7.772;2023-07-02T12:40:20;97074.00;;;26.30
19666;BMP180;9980;51.020;7.772;2023-07-02T12:42:48;97079.00;;;26.30
19666;BMP180;9980;51.020;7.772;2023-07-02T12:45:16;97078.00;;;26.20
19666;BMP180;9980;51.020;7.772;2023-07-02T12:47:48;97091.00;;;26.20
19666;BMP180;9980;51.020;7.772;2023-07-02T12:50:15;97091.00;;;26.10
19666;BMP180;9980;51.020;7.772;2023-07-02T12:52:42;97093.00;;;26.10
19666;BMP180;9980;51.020;7.772;2023-07-02T12:55:09;97087.00;;;26.10
19666;BMP180;9980;51.020;7.772;2023-07-02T12:57:36;97108.00;;;26.10
19666;BMP180;9980;51.020;7.772;2023-07-02T13:00:04;97115.00;;;26.10
19666;BMP180;9980;51.020;7.772;2023-07-02T13:02:33;97106.00;;;26.10
19666;BMP180;9980;51.020;7.772;2023-07-02T13:05:13;97109.00;;;26.20
19666;BMP180;9980;51.020;7.772;2023-07-02T13:07:40;97115.00;;;26.20
19666;BMP180;9980;51.020;7.772;2023-07-02T13:10:07;97120.00;;;26.20
19666;BMP180;9980;51.020;7.772;2023-07-02T13:12:34;97126.00;;;26.30
19666;BMP180;9980;51.020;7.772;2023-07-02T13:15:01;97124.00;;;26.30
19666;BMP180;9980;51.020;7.772;2023-07-02T13:17:28;97116.00;;;26.20
19666;BMP180;9980;51.020;7.772;2023-07-02T13:19:55;97123.00;;;26.30
19666;BMP180;9980;51.020;7.772;2023-07-02T13:22:23;97109.00;;;26.30
19666;BMP180;9980;51.020;7.772;2023-07-02T13:24:49;97125.00;;;26.30
19666;BMP180;9980;51.020;7.772;2023-07-02T13:27:17;97110.00;;;26.30
19666;BMP180;9980;51.020;7.772;2023-07-02T13:29:45;97104.00;;;26.30
19666;BMP180;9980;51.020;7.772;2023-07-02T13:32:14;97117.00;;;26.40
19666;BMP180;9980;51.020;7.772;2023-07-02T13:34:41;97119.00;;;26.50
19666;BMP180;9980;51.020;7.772;2023-07-02T13:37:09;97105.00;;;26.60
19666;BMP180;9980;51.020;7.772;2023-07-02T13:39:36;97115.00;;;26.70
19666;BMP180;9980;51.020;7.772;2023-07-02T13:42:03;97114.00;;;26.70
19666;BMP180;9980;51.020;7.772;2023-07-02T13:44:30;97110.00;;;26.80
19666;BMP180;9980;51.020;7.772;2023-07-02T13:46:57;97104.00;;;26.80
19666;BMP180;9980;51.020;7.772;2023-07-02T13:49:24;97113.00;;;26.80
19666;BMP180;9980;51.020;7.772;2023-07-02T13:51:51;97107.00;;;26.90
19666;BMP180;9980;51.020;7.772;2023-07-02T13:54:19;97102.00;;;26.90
19666;BMP180;9980;51.020;7.772;2023-07-02T13:56:47;97107.00;;;27.00
19666;BMP180;9980;51.020;7.772;2023-07-02T13:59:18;97111.00;;;27.00
19666;BMP180;9980;51.020;7.772;2023-07-02T14:01:46;97108.00;;;27.10
19666;BMP180;9980;51.020;7.772;2023-07-02T14:04:15;97102.00;;;27.10
19666;BMP180;9980;51.020;7.772;2023-07-02T14:06:43;97105.00;;;27.10
19666;BMP180;9980;51.020;7.772;2023-07-02T14:09:10;97108.00;;;27.00
19666;BMP180;9980;51.020;7.772;2023-07-02T14:11:40;97112.00;;;27.00
19666;BMP180;9980;51.020;7.772;2023-07-02T14:14:08;97100.00;;;26.90
19666;BMP180;9980;51.020;7.772;2023-07-02T14:16:35;97103.00;;;26.90
19666;BMP180;9980;51.020;7.772;2023-07-02T14:19:02;97097.00;;;26.90
19666;BMP180;9980;51.020;7.772;2023-07-02T14:21:30;97100.00;;;26.90
19666;BMP180;9980;51.020;7.772;2023-07-02T14:23:58;97105.00;;;27.00
19666;BMP180;9980;51.020;7.772;2023-07-02T14:26:25;97109.00;;;27.00
19666;BMP180;9980;51.020;7.772;2023-07-02T14:28:53;97100.00;;;27.00
19666;BMP180;9980;51.020;7.772;2023-07-02T14:31:19;97104.00;;;27.00